Terminal Aerodrome Forecast
Issued by NWS

Home | Current Version | Previous Version | Text Only | Print | Product List | Glossary On
Versions: 1 2 3 4 5 6 7 8 9 10 11 12 13
000
FTUS45 KCYS 172320
TAFLAR
TAF
KLAR 172320Z 1800/1824 30015G25KT P6SM BKN100
     FM180200 26008KT P6SM SCT100
     FM180600 19006KT P6SM SKC
     FM181500 29010KT P6SM SCT100=

USA.gov is the U.S. government's official web portal to all federal, state and local government web resources and services.